createdAt,value
2023-05-04T00:02:12.814Z,99.90
2023-05-04T00:04:42.855Z,99.90
2023-05-04T00:07:12.655Z,99.90
2023-05-04T00:09:40.919Z,99.90
2023-05-04T00:12:09.244Z,99.90
2023-05-04T00:14:38.008Z,99.90
2023-05-04T00:17:07.766Z,1.00
2023-05-04T00:19:39.310Z,1.00
2023-05-04T00:22:07.818Z,1.00
2023-05-04T00:24:37.345Z,1.00
2023-05-04T00:27:05.613Z,1.00
2023-05-04T00:29:33.779Z,99.90
2023-05-04T00:32:02.041Z,1.00
2023-05-04T00:34:30.800Z,1.00
2023-05-04T00:36:58.953Z,1.00
2023-05-04T00:39:27.149Z,1.00
2023-05-04T00:41:56.951Z,1.00
2023-05-04T00:44:25.084Z,1.00
2023-05-04T00:46:53.935Z,1.00
2023-05-04T00:49:22.351Z,1.00
2023-05-04T00:51:52.288Z,1.00
2023-05-04T00:54:21.232Z,1.00
2023-05-04T00:56:50.217Z,1.00
2023-05-04T00:59:19.827Z,1.00
2023-05-04T01:01:48.081Z,99.90
2023-05-04T01:04:17.497Z,1.00
2023-05-04T01:06:53.753Z,1.00
2023-05-04T01:09:32.627Z,1.00
2023-05-04T01:12:08.087Z,1.00
2023-05-04T01:14:38.650Z,1.00
2023-05-04T01:17:09.291Z,1.00
2023-05-04T01:19:37.589Z,1.00
2023-05-04T01:22:07.320Z,1.00
2023-05-04T01:24:35.834Z,1.00
2023-05-04T01:27:10.186Z,1.00
2023-05-04T01:29:46.374Z,1.00
2023-05-04T01:32:18.544Z,1.00
2023-05-04T01:34:47.332Z,1.00
2023-05-04T01:37:16.914Z,1.00
2023-05-04T01:39:45.212Z,1.00
2023-05-04T01:42:14.674Z,1.00
2023-05-04T01:44:42.854Z,1.00
2023-05-04T01:47:11.199Z,1.00
2023-05-04T01:49:39.346Z,1.00
2023-05-04T01:52:07.906Z,1.00
2023-05-04T01:54:37.423Z,1.00
2023-05-04T01:57:05.827Z,1.00
2023-05-04T01:59:34.009Z,1.00
2023-05-04T02:02:02.240Z,1.00
2023-05-04T02:04:31.519Z,1.00
2023-05-04T02:06:59.698Z,1.00
2023-05-04T02:09:28.003Z,1.00
2023-05-04T02:11:57.715Z,1.00
2023-05-04T02:14:26.084Z,1.00
2023-05-04T02:16:54.364Z,1.00
2023-05-04T02:19:22.536Z,1.00
2023-05-04T02:21:52.398Z,1.00
2023-05-04T02:24:20.621Z,1.00
2023-05-04T02:26:48.822Z,1.00
2023-05-04T02:29:18.318Z,1.00
2023-05-04T02:31:46.475Z,1.00
2023-05-04T02:34:14.667Z,1.00
2023-05-04T02:36:43.295Z,1.00
2023-05-04T02:39:11.675Z,1.00
2023-05-04T02:41:40.001Z,1.00
2023-05-04T02:44:08.302Z,1.00
2023-05-04T02:46:37.839Z,1.00
2023-05-04T02:49:06.264Z,1.00
2023-05-04T02:51:34.477Z,1.00
2023-05-04T02:54:02.659Z,1.00
2023-05-04T02:56:30.866Z,1.00
2023-05-04T02:58:59.021Z,1.00
2023-05-04T03:01:27.253Z,1.00
2023-05-04T03:03:56.891Z,1.00
2023-05-04T03:06:25.153Z,1.00
2023-05-04T03:08:53.448Z,1.00
2023-05-04T03:11:21.636Z,1.00
2023-05-04T03:13:49.786Z,1.00
2023-05-04T03:16:18.415Z,1.00
2023-05-04T03:18:59.037Z,1.00
2023-05-04T03:21:29.128Z,1.00
2023-05-04T03:23:57.306Z,1.00
2023-05-04T03:26:25.545Z,1.00
2023-05-04T03:28:53.857Z,1.00
2023-05-04T03:31:22.119Z,1.00
2023-05-04T03:33:50.304Z,1.00
2023-05-04T03:36:18.779Z,1.00
2023-05-04T03:38:48.332Z,1.00
2023-05-04T03:41:17.192Z,1.00
2023-05-04T03:43:45.595Z,1.00
2023-05-04T03:46:14.142Z,1.00
2023-05-04T03:48:42.311Z,1.00
2023-05-04T03:51:10.543Z,1.00
2023-05-04T03:53:38.734Z,1.00
2023-05-04T03:56:09.357Z,1.00
2023-05-04T03:58:37.569Z,1.00
2023-05-04T04:01:05.863Z,1.00
2023-05-04T04:03:36.306Z,1.00
2023-05-04T04:06:05.382Z,1.00
2023-05-04T04:08:33.587Z,1.00
2023-05-04T04:11:01.774Z,1.00
2023-05-04T04:13:31.310Z,1.00
2023-05-04T04:15:59.575Z,1.00
2023-05-04T04:18:27.810Z,1.00
2023-05-04T04:20:56.144Z,1.00
2023-05-04T04:23:25.333Z,1.00
2023-05-04T04:25:54.077Z,1.00
2023-05-04T04:28:22.888Z,1.00
2023-05-04T04:30:52.944Z,1.00
2023-05-04T04:33:21.464Z,1.00
2023-05-04T04:35:49.784Z,1.00
2023-05-04T04:38:18.477Z,1.00
2023-05-04T04:40:46.660Z,1.00
2023-05-04T04:43:14.946Z,1.00
2023-05-04T04:45:45.027Z,1.00
2023-05-04T04:48:14.952Z,1.00
2023-05-04T04:50:43.151Z,1.00
2023-05-04T04:53:11.608Z,1.00
2023-05-04T04:55:39.854Z,1.00
2023-05-04T04:58:08.799Z,99.90
2023-05-04T05:00:37.199Z,99.90
2023-05-04T05:03:05.600Z,99.90
2023-05-04T05:05:35.728Z,33.30
2023-05-04T05:08:03.961Z,1.00
2023-05-04T05:10:32.254Z,1.00
2023-05-04T05:13:00.515Z,99.90
2023-05-04T05:15:28.736Z,99.90
2023-05-04T05:17:56.983Z,99.90
2023-05-04T05:20:25.595Z,99.90
2023-05-04T05:22:55.188Z,96.80
2023-05-04T05:25:24.014Z,99.90
2023-05-04T05:27:52.599Z,99.90
2023-05-04T05:30:21.270Z,1.00
2023-05-04T05:32:49.633Z,1.00
2023-05-04T05:35:18.113Z,1.00
2023-05-04T05:37:46.950Z,99.90
2023-05-04T05:40:16.710Z,26.80
2023-05-04T05:42:45.031Z,1.00
2023-05-04T05:45:14.408Z,1.00
2023-05-04T05:47:42.655Z,1.00
2023-05-04T05:50:13.528Z,1.00
2023-05-04T05:52:41.888Z,99.90
2023-05-04T05:55:11.262Z,99.90
2023-05-04T05:57:40.868Z,99.90
2023-05-04T06:00:10.487Z,99.90
2023-05-04T06:02:38.840Z,99.90
2023-05-04T06:05:07.653Z,99.90
2023-05-04T06:07:35.929Z,99.90
2023-05-04T06:10:04.646Z,99.90
2023-05-04T06:12:33.083Z,99.90
2023-05-04T06:15:02.838Z,99.90
2023-05-04T06:17:31.093Z,99.90
2023-05-04T06:19:59.352Z,99.90
2023-05-04T06:22:27.679Z,99.90
2023-05-04T06:25:02.147Z,99.90
2023-05-04T06:27:32.834Z,99.90
2023-05-04T06:30:02.643Z,99.90
2023-05-04T06:32:31.034Z,99.90
2023-05-04T06:34:59.958Z,99.90
2023-05-04T06:37:28.157Z,99.90
2023-05-04T06:39:56.498Z,99.90
2023-05-04T06:42:24.800Z,99.90
2023-05-04T06:44:53.309Z,99.90
2023-05-04T06:47:22.970Z,99.90
2023-05-04T06:49:51.294Z,99.90
2023-05-04T06:52:19.653Z,99.90
2023-05-04T06:54:47.904Z,99.90
2023-05-04T06:57:16.424Z,99.90
2023-05-04T06:59:44.852Z,99.90
2023-05-04T07:02:13.089Z,99.90
2023-05-04T07:04:42.693Z,99.90
2023-05-04T07:07:11.402Z,99.90
2023-05-04T07:09:39.959Z,99.90
2023-05-04T07:12:08.657Z,99.90
2023-05-04T07:14:36.844Z,99.90
2023-05-04T07:17:05.051Z,99.90
2023-05-04T07:19:33.233Z,99.90
2023-05-04T07:22:02.880Z,99.90
2023-05-04T07:24:31.819Z,99.90
2023-05-04T07:27:00.038Z,99.90
2023-05-04T07:29:28.280Z,99.90
2023-05-04T07:31:56.752Z,99.90
2023-05-04T07:34:33.855Z,99.90
2023-05-04T07:37:12.176Z,99.90
2023-05-04T07:39:41.619Z,99.90
2023-05-04T07:42:11.531Z,99.90
2023-05-04T07:44:39.798Z,99.90
2023-05-04T07:47:08.377Z,99.90
2023-05-04T07:49:36.827Z,95.70
2023-05-04T07:52:06.007Z,91.40
2023-05-04T07:54:36.402Z,84.40
2023-05-04T07:57:05.261Z,82.30
2023-05-04T07:59:33.904Z,73.10
2023-05-04T08:02:02.192Z,72.80
2023-05-04T08:04:30.429Z,61.30
2023-05-04T08:06:58.571Z,63.10
2023-05-04T08:09:26.811Z,78.00
2023-05-04T08:11:56.450Z,72.80
2023-05-04T08:14:24.696Z,64.20
2023-05-04T08:16:52.873Z,57.50
2023-05-04T08:19:21.188Z,53.00
2023-05-04T08:21:49.446Z,48.90
2023-05-04T08:24:18.384Z,46.30
2023-05-04T08:26:55.604Z,44.70
2023-05-04T08:29:31.613Z,41.60
2023-05-04T08:32:01.326Z,42.90
2023-05-04T08:34:29.624Z,35.50
2023-05-04T08:36:58.184Z,29.10
2023-05-04T08:39:26.558Z,31.00
2023-05-04T08:41:55.149Z,33.40
2023-05-04T08:44:24.115Z,30.00
2023-05-04T08:46:55.151Z,24.90
2023-05-04T08:49:25.243Z,23.20
2023-05-04T08:51:53.653Z,24.70
2023-05-04T08:54:24.206Z,22.90
2023-05-04T08:56:54.990Z,23.90
2023-05-04T08:59:25.977Z,23.40
2023-05-04T09:02:00.343Z,22.10
2023-05-04T09:04:29.892Z,21.70
2023-05-04T09:06:58.591Z,21.60
2023-05-04T09:09:31.347Z,25.80
2023-05-04T09:11:59.926Z,27.60
2023-05-04T09:14:34.484Z,24.50
2023-05-04T09:17:14.350Z,22.30
2023-05-04T09:19:44.581Z,22.10
2023-05-04T09:22:17.672Z,19.70
2023-05-04T09:24:46.643Z,17.70
2023-05-04T09:27:18.470Z,16.40
2023-05-04T09:29:55.424Z,16.50
2023-05-04T09:32:25.380Z,17.00
2023-05-04T09:34:55.411Z,15.80
2023-05-04T09:37:24.048Z,17.50
2023-05-04T09:39:56.835Z,18.00
2023-05-04T09:42:26.696Z,17.80
2023-05-04T09:45:03.868Z,16.70
2023-05-04T09:47:39.532Z,14.50
2023-05-04T09:50:19.872Z,13.00
2023-05-04T09:52:49.737Z,11.70
2023-05-04T09:55:19.793Z,11.20
2023-05-04T09:57:50.959Z,10.50
2023-05-04T10:00:20.874Z,10.90
2023-05-04T10:02:51.844Z,10.50
2023-05-04T10:05:21.706Z,8.70
2023-05-04T10:07:51.024Z,7.80
2023-05-04T10:10:19.288Z,7.60
2023-05-04T10:13:01.989Z,7.00
2023-05-04T10:15:30.898Z,7.00
2023-05-04T10:18:30.027Z,5.10
2023-05-04T10:21:30.292Z,4.30
2023-05-04T10:24:33.807Z,3.30
2023-05-04T10:27:12.908Z,5.00
2023-05-04T10:29:43.079Z,1.40
2023-05-04T10:32:22.868Z,3.30
2023-05-04T10:35:07.084Z,2.50
2023-05-04T10:37:37.630Z,1.00
2023-05-04T10:40:08.222Z,1.00
2023-05-04T10:42:43.472Z,1.00
2023-05-04T10:45:13.673Z,1.00
2023-05-04T10:47:43.252Z,1.00
2023-05-04T10:50:14.636Z,1.00
2023-05-04T10:52:50.286Z,1.00
2023-05-04T10:55:19.937Z,1.00
2023-05-04T10:57:50.588Z,1.00
2023-05-04T11:00:20.749Z,1.00
2023-05-04T11:02:50.666Z,1.00
2023-05-04T11:05:20.782Z,1.00
2023-05-04T11:07:53.108Z,1.00
2023-05-04T11:10:27.144Z,1.00
2023-05-04T11:13:05.733Z,1.00
2023-05-04T11:15:45.076Z,1.00
2023-05-04T11:18:13.394Z,1.00
2023-05-04T11:20:43.933Z,1.00
2023-05-04T11:23:17.700Z,1.00
2023-05-04T11:25:46.371Z,1.00
2023-05-04T11:28:14.879Z,1.00
2023-05-04T11:30:44.545Z,1.00
2023-05-04T11:33:15.712Z,1.00
2023-05-04T11:35:46.416Z,1.00
2023-05-04T11:38:21.046Z,1.00
2023-05-04T11:40:49.791Z,1.00
2023-05-04T11:43:19.149Z,1.00
2023-05-04T11:45:50.137Z,1.00
2023-05-04T11:48:18.985Z,1.00
2023-05-04T11:50:49.044Z,1.00
2023-05-04T11:53:21.511Z,1.00
2023-05-04T11:55:50.439Z,1.00
2023-05-04T11:58:26.758Z,1.00
2023-05-04T12:00:59.237Z,1.00
2023-05-04T12:03:39.682Z,1.00
2023-05-04T12:06:19.055Z,1.00
2023-05-04T12:08:47.344Z,1.00
2023-05-04T12:11:20.308Z,1.00
2023-05-04T12:14:01.950Z,1.00
2023-05-04T12:16:30.408Z,1.00
2023-05-04T12:19:05.631Z,1.00
2023-05-04T12:21:36.908Z,1.00
2023-05-04T12:24:07.572Z,1.00
2023-05-04T12:26:36.950Z,1.00
2023-05-04T12:29:16.931Z,1.00
2023-05-04T12:31:45.298Z,1.00
2023-05-04T12:34:13.564Z,1.00
2023-05-04T12:36:44.383Z,1.00
2023-05-04T12:39:12.701Z,1.00
2023-05-04T12:41:41.141Z,1.00
2023-05-04T12:44:11.469Z,1.00
2023-05-04T12:46:39.691Z,1.00
2023-05-04T12:49:07.997Z,1.00
2023-05-04T12:51:43.424Z,1.00
2023-05-04T12:54:11.703Z,1.00
2023-05-04T12:56:40.530Z,1.00
2023-05-04T12:59:09.031Z,1.00
2023-05-04T13:01:37.379Z,1.00
2023-05-04T13:04:05.932Z,1.00
2023-05-04T13:06:34.281Z,1.00
2023-05-04T13:09:06.193Z,1.00
2023-05-04T13:11:34.413Z,1.00
2023-05-04T13:14:02.754Z,1.00
2023-05-04T13:16:40.216Z,1.00
2023-05-04T13:19:08.609Z,1.00
2023-05-04T13:21:36.884Z,1.00
2023-05-04T13:24:07.816Z,1.00
2023-05-04T13:26:36.124Z,1.00
2023-05-04T13:29:05.376Z,1.00
2023-05-04T13:31:33.998Z,1.00
2023-05-04T13:34:02.581Z,1.00
2023-05-04T13:36:30.948Z,1.00
2023-05-04T13:38:59.872Z,1.00
2023-05-04T13:41:29.470Z,1.00
2023-05-04T13:43:57.793Z,1.00
2023-05-04T13:46:26.075Z,1.00
2023-05-04T13:48:56.850Z,1.00
2023-05-04T13:51:25.380Z,1.00
2023-05-04T13:53:53.644Z,1.00
2023-05-04T13:56:21.959Z,1.00
2023-05-04T13:58:52.509Z,1.00
2023-05-04T14:01:21.066Z,1.00
2023-05-04T14:03:49.340Z,1.00
2023-05-04T14:06:17.586Z,1.00
2023-05-04T14:08:45.817Z,1.00
2023-05-04T14:11:14.558Z,1.00
2023-05-04T14:13:42.934Z,1.00
2023-05-04T14:16:12.648Z,1.00
2023-05-04T14:18:41.045Z,1.00
2023-05-04T14:21:09.309Z,1.00
2023-05-04T14:23:37.543Z,1.00
2023-05-04T14:26:05.993Z,1.00
2023-05-04T14:28:34.424Z,1.00
2023-05-04T14:31:08.724Z,1.00
2023-05-04T14:33:41.424Z,1.00
2023-05-04T14:36:11.854Z,1.00
2023-05-04T14:38:40.054Z,1.00
2023-05-04T14:41:08.460Z,1.00
2023-05-04T14:43:36.717Z,1.00
2023-05-04T14:46:05.064Z,1.00
2023-05-04T14:48:33.283Z,1.00
2023-05-04T14:51:03.481Z,1.00
2023-05-04T14:53:36.146Z,1.00
2023-05-04T14:56:05.883Z,1.00
2023-05-04T14:58:34.117Z,1.00
2023-05-04T15:01:02.344Z,1.00
2023-05-04T15:03:30.892Z,1.00
2023-05-04T15:05:59.316Z,1.00
2023-05-04T15:08:28.936Z,1.00
2023-05-04T15:10:59.113Z,1.00
2023-05-04T15:13:27.561Z,1.00
2023-05-04T15:15:55.798Z,1.00
2023-05-04T15:18:24.129Z,1.00
2023-05-04T15:20:52.420Z,1.00
2023-05-04T15:23:22.315Z,1.00
2023-05-04T15:25:51.935Z,1.00
2023-05-04T15:28:22.821Z,1.00
2023-05-04T15:30:51.102Z,1.00
2023-05-04T15:33:19.381Z,1.00
2023-05-04T15:35:47.590Z,1.00
2023-05-04T15:38:15.842Z,1.00
2023-05-04T15:40:44.000Z,1.00
2023-05-04T15:43:14.085Z,1.00
2023-05-04T15:45:42.334Z,1.00
2023-05-04T15:48:10.576Z,1.00
2023-05-04T15:50:39.054Z,1.00
2023-05-04T15:53:07.240Z,1.00
2023-05-04T15:55:35.457Z,1.00
2023-05-04T15:58:03.687Z,1.00
2023-05-04T16:00:34.269Z,1.00
2023-05-04T16:03:02.695Z,1.00
2023-05-04T16:05:31.243Z,1.00
2023-05-04T16:07:59.513Z,1.00
2023-05-04T16:10:27.845Z,1.00
2023-05-04T16:12:56.328Z,1.00
2023-05-04T16:15:24.779Z,1.00
2023-05-04T16:17:54.453Z,1.00
2023-05-04T16:20:22.798Z,1.00
2023-05-04T16:22:51.064Z,1.00
2023-05-04T16:25:19.437Z,1.00
2023-05-04T16:27:47.616Z,1.00
2023-05-04T16:30:17.423Z,1.00
2023-05-04T16:32:46.278Z,1.00
2023-05-04T16:35:15.839Z,1.00
2023-05-04T16:37:44.107Z,1.00
2023-05-04T16:40:15.186Z,1.00
2023-05-04T16:42:44.237Z,1.00
2023-05-04T16:45:14.608Z,1.00
2023-05-04T16:47:44.344Z,1.00
2023-05-04T16:50:14.963Z,1.00
2023-05-04T16:52:43.633Z,1.00
2023-05-04T16:55:12.816Z,1.00
2023-05-04T16:57:41.553Z,1.00
2023-05-04T17:00:13.194Z,1.00
2023-05-04T17:02:42.086Z,1.00
2023-05-04T17:05:11.396Z,1.00
2023-05-04T17:07:43.175Z,1.00
2023-05-04T17:10:14.303Z,1.00
2023-05-04T17:12:43.026Z,1.00
2023-05-04T17:15:12.940Z,1.00
2023-05-04T17:17:42.132Z,1.00
2023-05-04T17:20:14.913Z,1.00
2023-05-04T17:22:46.142Z,1.00
2023-05-04T17:25:14.967Z,1.00
2023-05-04T17:27:43.754Z,1.00
2023-05-04T17:30:13.909Z,1.00
2023-05-04T17:32:42.212Z,1.00
2023-05-04T17:35:23.502Z,1.00
2023-05-04T17:37:57.990Z,1.00
2023-05-04T17:40:28.621Z,1.00
2023-05-04T17:42:57.413Z,1.00
2023-05-04T17:45:25.766Z,1.00
2023-05-04T17:47:54.246Z,1.00
2023-05-04T17:50:23.802Z,1.00
2023-05-04T17:52:56.907Z,1.00
2023-05-04T17:55:25.443Z,1.00
2023-05-04T17:57:54.700Z,1.00
2023-05-04T18:00:23.547Z,1.00
2023-05-04T18:02:51.986Z,1.00
2023-05-04T18:05:20.548Z,1.00
2023-05-04T18:07:48.868Z,1.00
2023-05-04T18:10:18.799Z,1.00
2023-05-04T18:12:47.513Z,1.00
2023-05-04T18:15:17.097Z,1.00
2023-05-04T18:17:45.655Z,1.00
2023-05-04T18:20:14.042Z,1.00
2023-05-04T18:22:42.230Z,1.00
2023-05-04T18:25:11.625Z,1.00
2023-05-04T18:27:41.164Z,1.00
2023-05-04T18:30:11.093Z,1.50
2023-05-04T18:32:39.408Z,4.40
2023-05-04T18:35:09.116Z,7.40
2023-05-04T18:37:37.502Z,10.90
2023-05-04T18:40:07.876Z,13.20
2023-05-04T18:42:36.205Z,16.30
2023-05-04T18:45:07.213Z,19.40
2023-05-04T18:47:35.419Z,21.50
2023-05-04T18:50:03.723Z,25.70
2023-05-04T18:52:33.930Z,29.10
2023-05-04T18:55:02.180Z,33.80
2023-05-04T18:57:30.926Z,38.00
2023-05-04T18:59:59.219Z,42.70
2023-05-04T19:02:30.085Z,52.40
2023-05-04T19:04:58.478Z,58.90
2023-05-04T19:07:26.780Z,67.90
2023-05-04T19:09:55.420Z,77.40
2023-05-04T19:12:23.884Z,91.80
2023-05-04T19:14:52.364Z,94.30
2023-05-04T19:17:20.649Z,94.90
2023-05-04T19:19:50.253Z,97.50
2023-05-04T19:22:18.437Z,99.70
2023-05-04T19:24:51.777Z,99.90
2023-05-04T19:27:20.127Z,99.90
2023-05-04T19:29:48.403Z,99.90
2023-05-04T19:32:24.131Z,99.90
2023-05-04T19:34:54.529Z,99.90
2023-05-04T19:37:22.960Z,99.90
2023-05-04T19:39:51.746Z,99.90
2023-05-04T19:42:20.145Z,99.90
2023-05-04T19:44:48.527Z,99.90
2023-05-04T19:47:17.133Z,99.90
2023-05-04T19:49:47.694Z,99.90
2023-05-04T19:52:17.592Z,99.90
2023-05-04T19:54:48.307Z,99.90
2023-05-04T19:57:16.645Z,99.90
2023-05-04T19:59:46.859Z,99.90
2023-05-04T20:02:15.527Z,99.90
2023-05-04T20:04:43.855Z,99.90
2023-05-04T20:07:12.036Z,99.90
2023-05-04T20:09:41.644Z,99.90
2023-05-04T20:12:10.874Z,99.90
2023-05-04T20:14:40.482Z,99.90
2023-05-04T20:17:09.022Z,99.90
2023-05-04T20:19:38.389Z,1.00
2023-05-04T20:22:06.727Z,1.00
2023-05-04T20:24:35.278Z,1.00
2023-05-04T20:27:05.028Z,1.00
2023-05-04T20:29:33.777Z,1.00
2023-05-04T20:32:05.065Z,1.00
2023-05-04T20:34:33.728Z,1.00
2023-05-04T20:37:01.987Z,1.00
2023-05-04T20:39:30.407Z,1.00
2023-05-04T20:41:59.047Z,59.10
2023-05-04T20:44:28.902Z,99.90
2023-05-04T20:46:57.305Z,99.90
2023-05-04T20:49:25.718Z,99.90
2023-05-04T20:51:53.981Z,99.90
2023-05-04T20:54:22.330Z,99.90
2023-05-04T20:56:50.526Z,99.90
2023-05-04T20:59:18.759Z,99.90
2023-05-04T21:01:48.353Z,1.00
2023-05-04T21:04:16.872Z,99.90
2023-05-04T21:06:47.401Z,1.00
2023-05-04T21:09:16.640Z,18.80
2023-05-04T21:11:44.963Z,1.00
2023-05-04T21:14:13.213Z,99.90
2023-05-04T21:16:41.492Z,99.90
2023-05-04T21:19:11.090Z,1.00
2023-05-04T21:21:40.914Z,1.00
2023-05-04T21:24:13.204Z,99.90
2023-05-04T21:26:42.217Z,99.90
2023-05-04T21:29:12.774Z,99.90
2023-05-04T21:31:42.252Z,99.90
2023-05-04T21:34:12.071Z,99.90
2023-05-04T21:36:40.464Z,1.00
2023-05-04T21:39:09.174Z,33.30
2023-05-04T21:41:37.731Z,99.90
2023-05-04T21:44:06.193Z,1.00
2023-05-04T21:46:34.376Z,99.90
2023-05-04T21:49:02.659Z,99.90
2023-05-04T21:51:32.342Z,1.00
2023-05-04T21:54:00.563Z,99.90
2023-05-04T21:56:28.754Z,99.90
2023-05-04T21:58:56.973Z,99.90
2023-05-04T22:01:25.317Z,99.90
2023-05-04T22:03:53.980Z,99.90
2023-05-04T22:06:23.096Z,99.90
2023-05-04T22:08:52.672Z,99.90
2023-05-04T22:11:20.892Z,1.00
2023-05-04T22:13:49.193Z,99.90
2023-05-04T22:16:17.436Z,20.80
2023-05-04T22:18:45.651Z,1.00
2023-05-04T22:21:13.981Z,99.90
2023-05-04T22:23:42.207Z,99.90
2023-05-04T22:26:11.792Z,96.40
2023-05-04T22:28:39.930Z,1.00
2023-05-04T22:31:08.224Z,99.90
2023-05-04T22:33:36.498Z,1.00
2023-05-04T22:36:05.180Z,99.90
2023-05-04T22:38:33.337Z,1.00
2023-05-04T22:41:02.331Z,1.00
2023-05-04T22:43:31.910Z,99.90
2023-05-04T22:46:00.132Z,1.00
2023-05-04T22:48:28.406Z,1.00
2023-05-04T22:50:56.625Z,99.90
2023-05-04T22:53:24.882Z,1.00
2023-05-04T22:55:53.064Z,1.00
2023-05-04T22:58:21.704Z,93.00
2023-05-04T23:00:51.320Z,99.90
2023-05-04T23:03:19.612Z,1.00
2023-05-04T23:05:47.800Z,99.90
2023-05-04T23:08:16.030Z,99.90
2023-05-04T23:10:46.763Z,1.00
2023-05-04T23:13:15.005Z,99.90
2023-05-04T23:15:43.319Z,1.00
2023-05-04T23:18:13.868Z,99.90
2023-05-04T23:20:42.176Z,93.70
2023-05-04T23:23:10.415Z,1.00
2023-05-04T23:25:38.609Z,1.00
2023-05-04T23:28:06.799Z,99.90
2023-05-04T23:30:35.020Z,1.00
2023-05-04T23:33:03.340Z,1.00
2023-05-04T23:35:33.060Z,99.90
2023-05-04T23:38:01.256Z,99.90
2023-05-04T23:40:29.487Z,1.00
2023-05-04T23:42:57.722Z,1.00
2023-05-04T23:45:26.036Z,1.00
2023-05-04T23:47:54.387Z,1.00
2023-05-04T23:50:22.637Z,29.40
2023-05-04T23:52:52.206Z,99.90
2023-05-04T23:55:20.602Z,99.90
2023-05-04T23:57:49.106Z,99.90
